Time;durP1;ratioP1;P1;durP2;ratioP2;P2;SDS_P1;SDS_P2;PMS_P1;PMS_P2;Temp;Humidity;BMP_temperature;BMP_pressure;BME280_temperature;BME280_humidity;BME280_pressure;Samples;Min_cycle;Max_cycle;Signal;HPM_P1;HPM_P2
2023/07/31 01:02:32;;;;;;;1517.40;999.90;;;26.90;99.90;;;;;;5111668;27;20776;-68
2023/07/31 01:04:59;;;;;;;1481.47;999.90;;;27.00;99.90;;;;;;5111390;28;20081;-66
2023/07/31 01:07:52;;;;;;;1677.38;999.90;;;27.20;99.90;;;;;;5111381;28;20024;-67
2023/07/31 01:10:30;;;;;;;1689.82;999.90;;;27.40;99.90;;;;;;5111547;28;20387;-68
2023/07/31 01:12:58;;;;;;;1455.38;999.90;;;27.60;99.90;;;;;;5111158;28;20024;-66
2023/07/31 01:15:24;;;;;;;1642.85;999.90;;;27.70;99.90;;;;;;5111568;28;20262;-65
2023/07/31 01:17:51;;;;;;;1653.90;999.90;;;27.80;99.90;;;;;;5111268;28;20122;-65
2023/07/31 01:20:26;;;;;;;1091.75;901.58;;;27.90;99.90;;;;;;5111103;28;20024;-66
2023/07/31 01:23:09;;;;;;;1699.75;999.90;;;28.00;99.90;;;;;;5111142;28;20023;-66
2023/07/31 01:25:42;;;;;;;1588.82;999.90;;;28.10;99.90;;;;;;5110839;28;20027;-66
2023/07/31 01:28:20;;;;;;;1595.45;999.90;;;28.30;99.90;;;;;;5111055;28;20094;-65
2023/07/31 01:30:49;;;;;;;1544.07;999.90;;;28.30;99.90;;;;;;5110778;28;20077;-67
2023/07/31 01:33:19;;;;;;;637.67;573.22;;;28.40;99.90;;;;;;5110700;28;20024;-65
2023/07/31 01:35:48;;;;;;;76.22;45.35;;;28.40;99.90;;;;;;5110473;28;20069;-65
2023/07/31 01:38:15;;;;;;;183.00;109.18;;;28.50;99.90;;;;;;5110570;28;20034;-65
2023/07/31 01:40:45;;;;;;;129.00;74.20;;;28.50;99.90;;;;;;5110444;28;20065;-64
2023/07/31 01:43:11;;;;;;;46.45;33.33;;;28.60;99.90;;;;;;5110569;28;20023;-66
2023/07/31 01:45:38;;;;;;;59.33;44.58;;;28.70;99.90;;;;;;5110395;28;20024;-67
2023/07/31 01:48:04;;;;;;;38.67;25.20;;;28.70;99.90;;;;;;5110486;28;20022;-67
2023/07/31 01:50:31;;;;;;;36.25;20.52;;;28.80;99.90;;;;;;5110292;28;20142;-65
2023/07/31 01:52:57;;;;;;;114.63;70.13;;;28.80;99.90;;;;;;5110259;28;20020;-67
2023/07/31 01:55:24;;;;;;;93.20;57.17;;;28.90;99.90;;;;;;5102012;28;20028;-66
2023/07/31 01:57:50;;;;;;;135.50;83.85;;;28.90;99.90;;;;;;5092124;28;20036;-65
2023/07/31 02:00:17;;;;;;;52.15;29.52;;;29.00;99.90;;;;;;5089587;28;20493;-66
2023/07/31 02:02:43;;;;;;;44.38;28.35;;;29.10;99.90;;;;;;5107062;28;20031;-65
2023/07/31 02:05:10;;;;;;;46.67;27.27;;;29.10;99.90;;;;;;5110084;28;20020;-65
2023/07/31 02:07:37;;;;;;;38.40;19.40;;;29.20;99.90;;;;;;5110176;28;20020;-63
2023/07/31 02:10:03;;;;;;;28.92;18.00;;;29.20;99.90;;;;;;5109978;28;20023;-66
2023/07/31 02:12:31;;;;;;;44.13;24.27;;;29.20;99.90;;;;;;5103857;28;20503;-67
2023/07/31 02:14:58;;;;;;;44.53;26.67;;;29.10;99.90;;;;;;5079070;28;20063;-66
2023/07/31 02:17:24;;;;;;;37.47;22.13;;;29.20;99.90;;;;;;5086071;28;20066;-65
2023/07/31 02:19:51;;;;;;;42.22;22.67;;;29.30;99.90;;;;;;5096136;28;20020;-65
2023/07/31 02:22:18;;;;;;;72.72;34.33;;;29.20;99.90;;;;;;5096289;28;20415;-66
2023/07/31 02:24:44;;;;;;;44.90;21.45;;;29.20;99.90;;;;;;5095975;28;20016;-65
2023/07/31 02:27:11;;;;;;;40.47;24.23;;;29.20;99.90;;;;;;5096305;28;20027;-65
2023/07/31 02:29:37;;;;;;;28.23;17.40;;;29.10;99.90;;;;;;5088740;28;20017;-65
2023/07/31 02:32:04;;;;;;;152.20;119.38;;;29.20;99.90;;;;;;5075582;28;20024;-67
2023/07/31 02:34:31;;;;;;;929.42;786.22;;;29.30;99.90;;;;;;5075884;28;20028;-67
2023/07/31 02:36:57;;;;;;;1671.40;999.90;;;29.40;99.90;;;;;;5075669;28;20386;-68
2023/07/31 02:39:24;;;;;;;400.73;339.17;;;29.50;99.90;;;;;;5075677;28;20419;-66
2023/07/31 02:41:50;;;;;;;1003.38;813.85;;;29.50;99.90;;;;;;5075460;28;20481;-67
2023/07/31 02:44:17;;;;;;;1629.32;999.90;;;29.50;99.90;;;;;;5075506;28;20154;-68
2023/07/31 02:46:43;;;;;;;1567.72;999.90;;;29.60;99.90;;;;;;5075362;28;20070;-68
2023/07/31 02:49:10;;;;;;;1130.43;990.97;;;29.50;99.90;;;;;;5075392;28;20495;-68
2023/07/31 02:51:36;;;;;;;53.85;27.75;;;29.60;99.90;;;;;;5075480;28;20024;-67
2023/07/31 02:54:03;;;;;;;374.23;333.63;;;29.70;99.90;;;;;;5075312;28;20381;-67
2023/07/31 02:56:29;;;;;;;29.38;18.50;;;29.70;99.90;;;;;;5075277;28;20034;-68
2023/07/31 02:58:56;;;;;;;49.47;31.52;;;29.80;99.90;;;;;;5075193;28;20040;-68
2023/07/31 03:01:22;;;;;;;58.58;33.00;;;29.80;99.90;;;;;;5074919;28;20040;-67
2023/07/31 03:03:49;;;;;;;48.20;24.52;;;29.80;99.90;;;;;;5075299;28;20083;-67
2023/07/31 03:06:15;;;;;;;36.88;22.25;;;29.80;99.90;;;;;;5075204;28;20017;-66
2023/07/31 03:08:42;;;;;;;42.53;26.05;;;29.80;99.90;;;;;;5075291;28;20025;-66
2023/07/31 03:11:09;;;;;;;34.78;20.65;;;29.90;99.90;;;;;;5075088;28;20058;-65
2023/07/31 03:13:35;;;;;;;28.23;18.30;;;29.90;99.90;;;;;;5073950;28;20082;-71
2023/07/31 03:16:02;;;;;;;32.90;20.83;;;30.00;99.90;;;;;;5074769;28;20039;-67
2023/07/31 03:18:28;;;;;;;41.17;24.17;;;30.10;99.90;;;;;;5074708;28;20020;-67
2023/07/31 03:20:55;;;;;;;64.93;39.65;;;30.20;99.90;;;;;;5073401;28;20104;-66
2023/07/31 03:23:21;;;;;;;38.22;21.35;;;30.40;99.90;;;;;;5072914;28;20703;-66
2023/07/31 03:25:59;;;;;;;39.92;22.00;;;30.30;99.90;;;;;;5072675;28;20017;-66
2023/07/31 03:28:25;;;;;;;105.68;83.20;;;30.20;99.90;;;;;;5073753;28;20048;-68
2023/07/31 03:30:52;;;;;;;30.90;18.65;;;30.30;99.90;;;;;;5073973;28;20052;-66
2023/07/31 03:33:19;;;;;;;29.65;18.45;;;30.30;99.90;;;;;;5074388;28;20481;-71
2023/07/31 03:35:46;;;;;;;31.95;19.42;;;30.40;99.90;;;;;;5074531;28;20068;-68
2023/07/31 03:38:13;;;;;;;39.88;23.40;;;30.40;99.90;;;;;;5074496;28;20025;-67
2023/07/31 03:40:39;;;;;;;25.73;17.45;;;30.50;99.90;;;;;;5074386;28;20025;-68
2023/07/31 03:43:06;;;;;;;29.42;19.60;;;30.60;99.90;;;;;;5074315;28;20028;-66
2023/07/31 03:45:33;;;;;;;28.20;17.95;;;30.70;99.90;;;;;;5074303;28;20024;-67
2023/07/31 03:47:59;;;;;;;40.15;21.77;;;30.70;99.90;;;;;;5074290;28;20017;-68
2023/07/31 03:50:26;;;;;;;33.90;20.50;;;30.90;99.90;;;;;;5074113;28;20029;-65
2023/07/31 03:52:53;;;;;;;34.85;21.02;;;31.00;99.90;;;;;;5074258;28;20025;-66
2023/07/31 03:55:19;;;;;;;31.13;20.35;;;31.00;99.90;;;;;;5073971;28;20047;-69
2023/07/31 03:57:46;;;;;;;365.95;328.20;;;31.10;99.90;;;;;;5074149;28;20023;-66
2023/07/31 04:00:13;;;;;;;48.78;32.75;;;31.10;99.90;;;;;;5073888;28;20024;-66
2023/07/31 04:02:39;;;;;;;47.95;26.42;;;31.20;99.90;;;;;;5073874;28;20043;-66
2023/07/31 04:05:07;;;;;;;30.25;17.23;;;31.20;99.90;;;;;;5074350;28;20367;-66
2023/07/31 04:07:34;;;;;;;26.10;14.63;;;31.20;99.90;;;;;;5073867;28;20370;-65
2023/07/31 04:10:00;;;;;;;27.55;15.65;;;31.10;99.90;;;;;;5073754;28;20024;-66
2023/07/31 04:12:27;;;;;;;24.33;16.92;;;31.10;99.90;;;;;;5073829;28;20028;-66
2023/07/31 04:14:53;;;;;;;29.05;18.02;;;31.00;99.90;;;;;;5073741;28;20100;-68
2023/07/31 04:17:20;;;;;;;29.02;16.65;;;31.00;99.90;;;;;;5073532;28;20037;-66
2023/07/31 04:19:47;;;;;;;25.88;17.17;;;31.00;99.90;;;;;;5073748;28;20091;-66
2023/07/31 04:22:13;;;;;;;34.58;23.15;;;31.00;99.90;;;;;;5073631;28;20025;-65
2023/07/31 04:24:40;;;;;;;26.00;15.65;;;31.00;99.90;;;;;;5073549;28;20440;-65
2023/07/31 04:27:06;;;;;;;29.67;16.70;;;31.00;99.90;;;;;;5073686;28;20065;-64
2023/07/31 04:29:33;;;;;;;27.33;17.30;;;31.00;99.90;;;;;;5073609;28;20386;-65
2023/07/31 04:31:59;;;;;;;96.00;78.32;;;31.20;99.90;;;;;;5073437;28;20028;-64
2023/07/31 04:34:26;;;;;;;148.85;124.63;;;31.20;99.90;;;;;;5073750;28;20032;-66
2023/07/31 04:36:52;;;;;;;1159.68;964.33;;;31.20;99.90;;;;;;5073570;28;20484;-65
2023/07/31 04:39:19;;;;;;;967.45;840.83;;;31.30;99.90;;;;;;5073256;28;20473;-66
2023/07/31 04:41:45;;;;;;;640.28;571.72;;;31.40;99.90;;;;;;5073408;28;20036;-66
2023/07/31 04:44:12;;;;;;;800.65;703.20;;;31.50;99.90;;;;;;5073502;28;20013;-66
2023/07/31 04:46:38;;;;;;;688.25;612.58;;;31.60;99.90;;;;;;5073218;28;20020;-66
2023/07/31 04:49:05;;;;;;;1411.40;999.90;;;31.70;99.90;;;;;;5073397;28;20576;-65
2023/07/31 04:51:31;;;;;;;1218.75;999.50;;;31.70;99.90;;;;;;5073354;28;20082;-65
2023/07/31 04:53:58;;;;;;;1480.93;999.90;;;31.70;99.90;;;;;;5073240;28;20070;-66
2023/07/31 04:56:25;;;;;;;1655.07;999.90;;;31.70;99.90;;;;;;5073240;28;20030;-67
2023/07/31 04:58:51;;;;;;;1635.05;999.90;;;31.80;99.90;;;;;;5073294;28;20032;-66
2023/07/31 05:01:18;;;;;;;944.40;840.35;;;31.90;99.90;;;;;;5073046;28;20051;-67
2023/07/31 05:03:44;;;;;;;1413.65;999.90;;;31.80;99.90;;;;;;5073143;28;20021;-68
2023/07/31 05:06:12;;;;;;;883.10;786.67;;;31.70;99.90;;;;;;5073109;28;20028;-67
2023/07/31 05:08:38;;;;;;;546.65;489.02;;;31.70;99.90;;;;;;5073080;28;20024;-68
2023/07/31 05:11:05;;;;;;;894.60;801.20;;;31.80;99.90;;;;;;5072932;28;20048;-67
2023/07/31 05:13:31;;;;;;;1266.20;999.90;;;31.80;99.90;;;;;;5073115;28;20496;-68
2023/07/31 05:15:58;;;;;;;1487.90;999.90;;;31.90;99.90;;;;;;5073420;28;20431;-66
2023/07/31 05:18:24;;;;;;;1224.50;988.30;;;31.80;99.90;;;;;;5072952;28;20077;-66
2023/07/31 05:20:51;;;;;;;652.95;539.72;;;31.90;99.90;;;;;;5073355;28;20115;-67
2023/07/31 05:23:17;;;;;;;824.03;734.28;;;32.00;99.90;;;;;;5073119;28;20033;-68
2023/07/31 05:25:44;;;;;;;1141.22;991.08;;;32.00;99.90;;;;;;5072828;28;20031;-68
2023/07/31 05:28:12;;;;;;;1550.68;999.90;;;32.10;99.90;;;;;;5072927;28;20028;-68
2023/07/31 05:30:38;;;;;;;1515.38;999.90;;;32.10;99.90;;;;;;5072919;28;20388;-68
2023/07/31 05:33:05;;;;;;;1508.13;999.90;;;32.20;99.90;;;;;;5072865;28;20068;-68
2023/07/31 05:35:31;;;;;;;1601.35;999.90;;;32.30;99.90;;;;;;5072847;28;20031;-68
2023/07/31 05:37:58;;;;;;;1533.45;999.90;;;32.40;99.90;;;;;;5073038;28;20099;-67
2023/07/31 05:40:24;;;;;;;1548.00;999.90;;;32.50;99.90;;;;;;5072752;28;20511;-69
2023/07/31 05:42:51;;;;;;;1510.35;999.90;;;32.50;99.90;;;;;;5073659;28;20108;-70
2023/07/31 05:45:17;;;;;;;553.83;494.08;;;32.50;99.90;;;;;;5073178;28;20067;-70
2023/07/31 05:47:44;;;;;;;1652.70;999.90;;;32.50;99.90;;;;;;5078909;28;20044;-70
2023/07/31 05:50:10;;;;;;;1683.75;999.90;;;32.40;99.90;;;;;;5096923;28;20031;-69
2023/07/31 05:52:37;;;;;;;1610.93;999.90;;;32.40;99.90;;;;;;5097470;28;20103;-69
2023/07/31 05:55:04;;;;;;;1614.70;999.90;;;32.40;99.90;;;;;;5097068;28;20020;-70
2023/07/31 05:57:30;;;;;;;1658.63;999.90;;;32.50;99.90;;;;;;5090848;28;20065;-69
2023/07/31 05:59:57;;;;;;;1681.00;999.90;;;32.60;99.90;;;;;;5080117;28;20100;-70
2023/07/31 06:02:24;;;;;;;318.48;250.82;;;32.60;99.90;;;;;;5076548;28;20048;-68
2023/07/31 06:04:50;;;;;;;194.15;152.02;;;32.60;99.90;;;;;;5076748;28;20048;-69
2023/07/31 06:07:17;;;;;;;54.50;40.40;;;32.60;99.90;;;;;;5077059;28;20024;-69
2023/07/31 06:09:43;;;;;;;28.30;20.90;;;32.60;99.90;;;;;;5077060;28;20492;-68
2023/07/31 06:12:10;;;;;;;38.30;17.65;;;32.60;99.90;;;;;;5076438;28;20040;-69
2023/07/31 06:14:37;;;;;;;24.58;14.45;;;32.60;99.90;;;;;;5076486;28;20035;-70
2023/07/31 06:17:03;;;;;;;27.25;13.85;;;32.80;99.90;;;;;;5085502;28;20020;-68
2023/07/31 06:19:30;;;;;;;22.05;13.05;;;32.90;99.90;;;;;;5078836;28;20438;-70
2023/07/31 06:21:56;;;;;;;22.77;13.20;;;32.80;99.90;;;;;;5076451;28;20036;-71
2023/07/31 06:24:23;;;;;;;35.47;15.90;;;32.80;99.90;;;;;;5076332;28;20047;-74
2023/07/31 06:26:50;;;;;;;26.73;13.27;;;32.90;99.60;;;;;;5076104;28;20025;-73
2023/07/31 06:29:17;;;;;;;24.48;12.60;;;32.90;99.60;;;;;;5076468;28;20074;-70
2023/07/31 06:31:44;;;;;;;36.65;17.58;;;33.00;99.80;;;;;;5076321;28;20032;-69
2023/07/31 06:34:10;;;;;;;22.67;13.68;;;33.00;98.70;;;;;;5076204;28;20029;-71
2023/07/31 06:36:37;;;;;;;22.77;15.00;;;32.90;97.90;;;;;;5075859;28;20017;-69
2023/07/31 06:39:03;;;;;;;18.15;12.85;;;32.90;97.50;;;;;;5076913;28;20076;-69
2023/07/31 06:41:30;;;;;;;26.23;15.93;;;33.00;98.10;;;;;;5076531;28;20389;-69
2023/07/31 06:43:57;;;;;;;28.50;16.92;;;33.00;97.10;;;;;;5076589;28;20504;-70
2023/07/31 06:46:23;;;;;;;31.77;19.67;;;33.00;97.30;;;;;;5076289;28;20492;-69
2023/07/31 06:48:50;;;;;;;37.42;20.15;;;33.00;96.90;;;;;;5076137;28;20069;-68
2023/07/31 06:51:16;;;;;;;26.25;16.45;;;33.10;97.10;;;;;;5076076;28;20024;-70
2023/07/31 06:53:45;;;;;;;24.35;14.15;;;33.10;97.80;;;;;;5075795;28;20017;-70
2023/07/31 06:56:11;;;;;;;27.92;18.13;;;33.10;98.00;;;;;;5075855;28;20025;-70
2023/07/31 06:58:38;;;;;;;29.92;17.45;;;33.00;96.70;;;;;;5075720;28;20104;-70
2023/07/31 07:01:04;;;;;;;27.05;17.40;;;33.00;96.00;;;;;;5076181;28;20055;-70
2023/07/31 07:03:32;;;;;;;41.17;21.95;;;33.10;96.50;;;;;;5075783;28;20029;-69
2023/07/31 07:05:58;;;;;;;241.32;210.73;;;33.10;96.80;;;;;;5075857;28;20024;-69
2023/07/31 07:08:25;;;;;;;32.83;20.90;;;33.20;96.80;;;;;;5075638;28;20382;-70
2023/07/31 07:10:52;;;;;;;28.50;17.92;;;33.30;96.00;;;;;;5075768;28;20500;-71
2023/07/31 07:13:18;;;;;;;27.70;15.80;;;33.30;96.30;;;;;;5075733;28;20518;-72
2023/07/31 07:15:51;;;;;;;26.02;14.77;;;33.30;95.70;;;;;;5075601;28;20473;-71
2023/07/31 07:18:18;;;;;;;24.65;16.08;;;33.30;95.70;;;;;;5075706;28;20036;-72
2023/07/31 07:20:50;;;;;;;30.00;17.90;;;33.20;95.50;;;;;;5075389;28;20028;-72
2023/07/31 07:23:17;;;;;;;58.95;37.83;;;33.20;96.00;;;;;;5075096;28;20035;-72
2023/07/31 07:25:45;;;;;;;32.85;21.60;;;33.20;96.00;;;;;;5074843;28;20492;-71
2023/07/31 07:28:12;;;;;;;22.75;15.52;;;33.30;96.70;;;;;;5084362;28;20378;-72
2023/07/31 07:30:39;;;;;;;31.38;19.50;;;33.30;97.10;;;;;;5076033;28;20031;-69
2023/07/31 07:33:06;;;;;;;25.50;17.52;;;33.30;96.30;;;;;;5074447;28;20028;-71
2023/07/31 07:35:36;;;;;;;27.02;15.80;;;33.40;96.90;;;;;;5074927;28;20546;-71
2023/07/31 07:38:03;;;;;;;20.75;14.73;;;33.30;96.60;;;;;;5091887;28;20033;-72
2023/07/31 07:40:30;;;;;;;23.85;12.57;;;33.30;95.70;;;;;;5091824;28;20422;-71
2023/07/31 07:42:56;;;;;;;21.88;12.23;;;33.30;96.00;;;;;;5082855;28;20431;-72
2023/07/31 07:45:23;;;;;;;16.08;10.40;;;33.30;96.10;;;;;;5095397;28;20028;-71
2023/07/31 07:47:50;;;;;;;17.38;10.88;;;33.40;95.60;;;;;;5095381;28;20508;-70
2023/07/31 07:50:16;;;;;;;16.30;8.98;;;33.40;95.70;;;;;;5095161;28;20020;-75
2023/07/31 07:52:43;;;;;;;16.55;9.80;;;33.40;95.80;;;;;;5093408;28;20031;-73
2023/07/31 07:55:09;;;;;;;17.45;10.38;;;33.50;95.50;;;;;;5093133;28;20036;-73
2023/07/31 07:57:36;;;;;;;31.38;15.30;;;33.50;95.40;;;;;;5088148;28;20102;-71
2023/07/31 08:00:03;;;;;;;29.15;16.73;;;33.50;94.40;;;;;;5094068;28;20051;-71
2023/07/31 08:02:29;;;;;;;28.65;19.50;;;33.50;94.90;;;;;;5094138;28;20028;-71
2023/07/31 08:04:56;;;;;;;43.15;30.05;;;33.60;95.70;;;;;;5094720;28;20028;-74
2023/07/31 08:07:22;;;;;;;35.28;23.48;;;33.60;95.60;;;;;;5094617;28;20358;-71
2023/07/31 08:09:49;;;;;;;22.77;12.32;;;33.50;94.80;;;;;;5094055;28;20028;-70
2023/07/31 08:12:16;;;;;;;20.50;12.18;;;33.60;94.70;;;;;;5093965;28;20024;-71
2023/07/31 08:14:42;;;;;;;20.52;11.80;;;33.60;94.50;;;;;;5094124;28;20554;-71
2023/07/31 08:17:09;;;;;;;18.08;11.52;;;33.50;95.00;;;;;;5093924;28;20030;-70
2023/07/31 08:19:35;;;;;;;20.73;11.48;;;33.50;95.40;;;;;;5094029;28;20024;-70
2023/07/31 08:22:02;;;;;;;30.17;16.15;;;33.60;95.80;;;;;;5094157;28;20418;-70
2023/07/31 08:24:28;;;;;;;28.27;16.02;;;33.50;96.00;;;;;;5094269;28;20020;-68
2023/07/31 08:26:55;;;;;;;30.23;16.98;;;33.40;95.90;;;;;;5093904;28;20027;-70
2023/07/31 08:29:21;;;;;;;26.23;17.40;;;33.20;95.50;;;;;;5093986;28;20537;-71
2023/07/31 08:31:48;;;;;;;36.53;15.70;;;33.10;95.30;;;;;;5093973;28;20061;-71
2023/07/31 08:34:14;;;;;;;20.85;13.80;;;33.10;94.70;;;;;;5094036;28;20468;-70
2023/07/31 08:36:41;;;;;;;27.05;17.23;;;33.10;95.20;;;;;;5093888;28;20032;-70
2023/07/31 08:39:07;;;;;;;26.35;15.73;;;33.10;95.10;;;;;;5093980;28;20027;-71
2023/07/31 08:41:41;;;;;;;49.28;36.55;;;33.10;95.80;;;;;;5093620;28;20024;-70
2023/07/31 08:44:08;;;;;;;67.57;43.22;;;33.10;96.40;;;;;;5093937;28;20050;-70
2023/07/31 08:46:35;;;;;;;33.25;20.65;;;33.20;96.30;;;;;;5093708;28;20022;-69
2023/07/31 08:49:06;;;;;;;22.80;10.60;;;33.20;96.00;;;;;;5093664;28;20020;-70
2023/07/31 08:51:35;;;;;;;19.35;11.65;;;33.20;95.70;;;;;;5093580;28;20024;-71
2023/07/31 08:54:03;;;;;;;23.83;11.52;;;33.10;94.50;;;;;;5092432;28;20464;-71
2023/07/31 08:56:32;;;;;;;20.50;10.55;;;33.10;94.80;;;;;;5093368;28;20024;-68
2023/07/31 08:59:02;;;;;;;22.73;11.02;;;33.00;95.40;;;;;;5093660;28;20055;-70
2023/07/31 09:01:31;;;;;;;20.48;10.57;;;33.00;94.90;;;;;;5092661;28;20507;-68
2023/07/31 09:04:01;;;;;;;17.92;9.88;;;32.80;93.90;;;;;;5093011;28;20016;-69
2023/07/31 09:06:29;;;;;;;19.42;9.93;;;32.80;94.70;;;;;;5092853;28;20536;-66
2023/07/31 09:08:56;;;;;;;22.75;12.70;;;32.80;95.50;;;;;;5092782;28;20479;-69
2023/07/31 09:11:24;;;;;;;26.17;13.25;;;32.80;95.30;;;;;;5092780;28;20055;-68
2023/07/31 09:13:52;;;;;;;24.73;11.98;;;32.80;95.70;;;;;;5089469;28;20024;-65
2023/07/31 09:16:18;;;;;;;18.92;11.13;;;32.90;95.70;;;;;;5092002;28;20028;-69
2023/07/31 09:18:57;;;;;;;24.00;11.60;;;32.80;95.50;;;;;;5093131;28;20024;-68
2023/07/31 09:21:25;;;;;;;29.48;14.52;;;32.90;95.80;;;;;;5086568;28;20112;-61
2023/07/31 09:23:54;;;;;;;25.63;12.23;;;32.80;95.60;;;;;;5077218;28;20354;-69
2023/07/31 09:26:37;;;;;;;25.88;11.32;;;32.80;95.70;;;;;;5088526;28;20028;-69
2023/07/31 09:29:18;;;;;;;25.02;12.70;;;32.70;96.40;;;;;;5077038;28;20039;-68
2023/07/31 09:31:45;;;;;;;28.73;12.98;;;32.70;96.60;;;;;;5083058;28;20028;-68
2023/07/31 09:34:13;;;;;;;23.50;12.38;;;32.80;96.40;;;;;;5094956;28;20070;-69
2023/07/31 09:36:49;;;;;;;20.60;12.13;;;32.70;96.60;;;;;;5091851;28;20493;-66
2023/07/31 09:39:17;;;;;;;42.95;23.88;;;32.70;96.80;;;;;;5085643;28;20533;-67
2023/07/31 09:41:54;;;;;;;38.45;17.30;;;32.70;96.20;;;;;;5085236;28;20032;-69
2023/07/31 09:44:21;;;;;;;32.28;15.57;;;32.60;95.90;;;;;;5086780;28;20074;-67
2023/07/31 09:46:48;;;;;;;36.53;16.05;;;32.60;96.40;;;;;;5089446;28;20380;-67
2023/07/31 09:49:15;;;;;;;25.27;13.65;;;32.60;96.10;;;;;;5092328;28;20208;-68
2023/07/31 09:51:42;;;;;;;41.90;20.00;;;32.50;97.00;;;;;;5096260;28;20469;-67
2023/07/31 09:54:13;;;;;;;45.40;21.80;;;32.50;96.40;;;;;;5093541;28;20024;-66
2023/07/31 09:56:45;;;;;;;29.50;15.25;;;32.50;96.80;;;;;;5094836;28;20019;-66
2023/07/31 09:59:20;;;;;;;48.95;24.90;;;32.50;97.30;;;;;;5091880;28;20020;-67
2023/07/31 10:01:48;;;;;;;50.65;24.02;;;32.40;96.90;;;;;;5091682;28;20043;-69
2023/07/31 10:04:15;;;;;;;31.02;18.15;;;32.50;97.20;;;;;;5094427;28;20012;-69
2023/07/31 10:06:46;;;;;;;27.52;14.32;;;32.50;97.60;;;;;;5089563;28;20048;-69
2023/07/31 10:09:16;;;;;;;320.85;230.70;;;32.50;97.30;;;;;;5088046;28;20012;-69
2023/07/31 10:11:52;;;;;;;155.23;97.30;;;32.40;96.40;;;;;;5093489;28;20028;-69
2023/07/31 10:14:24;;;;;;;97.32;80.38;;;32.40;96.80;;;;;;5091513;28;20073;-70
2023/07/31 10:16:50;;;;;;;98.22;67.60;;;32.30;96.80;;;;;;5094100;28;20095;-67
2023/07/31 10:19:19;;;;;;;374.48;187.60;;;32.30;97.30;;;;;;5095679;28;20131;-64
2023/07/31 10:21:46;;;;;;;155.10;65.93;;;32.20;96.90;;;;;;5095606;28;20025;-67
2023/07/31 10:24:14;;;;;;;71.63;34.30;;;32.10;97.00;;;;;;5085361;28;20020;-67
2023/07/31 10:26:45;;;;;;;72.13;34.42;;;32.10;97.30;;;;;;5094240;28;20020;-68
2023/07/31 10:29:13;;;;;;;102.40;41.90;;;32.10;97.50;;;;;;5091519;28;20020;-67
2023/07/31 10:31:40;;;;;;;83.35;39.65;;;32.00;97.30;;;;;;5088900;28;20103;-67
2023/07/31 10:34:06;;;;;;;45.97;24.77;;;32.00;97.60;;;;;;5090121;28;20093;-67
2023/07/31 10:36:34;;;;;;;48.75;22.10;;;32.00;97.40;;;;;;5094102;28;20020;-67
2023/07/31 10:39:04;;;;;;;42.60;21.02;;;31.90;97.70;;;;;;5092568;28;20107;-67
2023/07/31 10:41:31;;;;;;;38.17;19.90;;;31.90;98.00;;;;;;5094893;28;20031;-67
2023/07/31 10:44:00;;;;;;;67.28;36.15;;;31.90;98.50;;;;;;5091750;28;20019;-67
2023/07/31 10:46:29;;;;;;;62.30;31.60;;;31.90;98.30;;;;;;5093911;28;20024;-67
2023/07/31 10:49:01;;;;;;;45.97;24.20;;;31.80;98.40;;;;;;5094650;28;20024;-66
2023/07/31 10:51:36;;;;;;;35.47;20.75;;;31.70;98.10;;;;;;5094170;28;20024;-66
2023/07/31 10:54:14;;;;;;;102.10;62.40;;;31.70;97.90;;;;;;5094088;28;20222;-66
2023/07/31 10:56:46;;;;;;;43.00;24.45;;;31.70;98.40;;;;;;5094100;28;20117;-67
2023/07/31 10:59:13;;;;;;;92.18;58.72;;;31.60;98.60;;;;;;5093841;28;20028;-66
2023/07/31 11:02:02;;;;;;;79.00;42.78;;;31.60;98.60;;;;;;5093684;28;20135;-68
2023/07/31 11:04:30;;;;;;;43.35;28.10;;;31.60;98.70;;;;;;5093714;28;20020;-67
2023/07/31 11:06:59;;;;;;;43.55;25.25;;;31.50;98.50;;;;;;5092528;28;20132;-67
2023/07/31 11:09:33;;;;;;;38.40;20.50;;;31.50;98.50;;;;;;5093406;28;20020;-67
2023/07/31 11:12:00;;;;;;;43.83;20.35;;;31.40;98.80;;;;;;5094204;28;20035;-67
2023/07/31 11:14:26;;;;;;;35.38;19.50;;;31.40;99.20;;;;;;5094762;28;20031;-66
2023/07/31 11:16:53;;;;;;;61.03;44.40;;;31.30;99.40;;;;;;5091177;28;20024;-66
2023/07/31 11:19:24;;;;;;;45.00;26.70;;;31.30;99.40;;;;;;5092509;28;20074;-67
2023/07/31 11:21:52;;;;;;;85.88;60.20;;;31.30;99.50;;;;;;5092802;28;20533;-67
2023/07/31 11:24:19;;;;;;;46.20;24.63;;;31.20;99.70;;;;;;5094274;28;20020;-66
2023/07/31 11:26:53;;;;;;;39.58;23.67;;;31.20;99.60;;;;;;5094159;28;20016;-66
2023/07/31 11:29:20;;;;;;;31.92;20.00;;;31.10;99.70;;;;;;5094468;28;20020;-67
2023/07/31 11:31:49;;;;;;;33.33;19.20;;;31.10;99.90;;;;;;5094395;28;20027;-67
2023/07/31 11:34:17;;;;;;;35.20;19.77;;;31.10;99.90;;;;;;5094295;28;20032;-67
2023/07/31 11:36:55;;;;;;;33.53;18.33;;;31.10;99.90;;;;;;5086385;28;20031;-67
2023/07/31 11:39:21;;;;;;;39.47;21.83;;;31.10;99.90;;;;;;5091386;28;20077;-66
2023/07/31 11:41:48;;;;;;;83.63;48.25;;;31.00;99.90;;;;;;5090034;28;20032;-67
2023/07/31 11:44:16;;;;;;;82.55;45.85;;;31.00;99.90;;;;;;5090438;28;20919;-68
2023/07/31 11:46:43;;;;;;;47.45;26.70;;;31.00;99.90;;;;;;5089968;28;20024;-68
2023/07/31 11:49:10;;;;;;;48.38;32.13;;;31.00;99.90;;;;;;5088643;28;20500;-68
2023/07/31 11:51:36;;;;;;;46.65;31.83;;;31.00;99.90;;;;;;5093242;28;20055;-67
2023/07/31 11:54:03;;;;;;;45.40;28.02;;;31.00;99.90;;;;;;5092664;28;20107;-68
2023/07/31 11:56:30;;;;;;;43.30;27.67;;;30.90;99.90;;;;;;5089570;28;20052;-66
2023/07/31 11:59:02;;;;;;;37.58;22.40;;;30.90;99.90;;;;;;5092944;28;20032;-67
2023/07/31 12:01:29;;;;;;;35.08;21.02;;;30.90;99.90;;;;;;5088649;28;20130;-66
2023/07/31 12:03:56;;;;;;;34.20;20.25;;;30.80;99.90;;;;;;5094194;28;20358;-65
2023/07/31 12:06:32;;;;;;;36.53;20.58;;;30.80;99.90;;;;;;5085375;28;20480;-66
2023/07/31 12:09:07;;;;;;;36.65;20.25;;;30.90;99.90;;;;;;5092487;28;20530;-66
2023/07/31 12:11:53;;;;;;;39.42;21.85;;;30.80;99.90;;;;;;5089794;28;20550;-66
2023/07/31 12:14:25;;;;;;;46.17;23.20;;;30.70;99.90;;;;;;5092431;28;20647;-68
2023/07/31 12:16:56;;;;;;;38.03;21.63;;;30.70;99.90;;;;;;5088441;28;20031;-66
2023/07/31 12:19:23;;;;;;;39.30;20.67;;;30.70;99.90;;;;;;5091623;28;20305;-67
2023/07/31 12:21:50;;;;;;;35.85;21.30;;;30.70;99.90;;;;;;5089042;28;20073;-68
2023/07/31 12:24:19;;;;;;;36.78;21.45;;;30.60;99.90;;;;;;5088858;28;20020;-69
2023/07/31 12:26:49;;;;;;;33.95;20.50;;;30.60;99.90;;;;;;5091892;28;20012;-68
2023/07/31 12:29:15;;;;;;;44.58;21.75;;;30.60;99.90;;;;;;5088324;28;20104;-68
2023/07/31 12:31:42;;;;;;;34.78;21.45;;;30.60;99.90;;;;;;5087148;28;20103;-69
2023/07/31 12:34:22;;;;;;;49.42;21.42;;;30.50;99.90;;;;;;5090417;28;20031;-68
2023/07/31 12:36:49;;;;;;;38.47;22.55;;;30.50;99.90;;;;;;5088455;28;20103;-67
2023/07/31 12:39:16;;;;;;;50.10;24.50;;;30.50;99.90;;;;;;5088522;28;20036;-67
2023/07/31 12:41:42;;;;;;;53.10;25.40;;;30.50;99.90;;;;;;5089700;28;20020;-67
2023/07/31 12:44:10;;;;;;;48.80;24.35;;;30.50;99.90;;;;;;5089452;28;20057;-67
2023/07/31 12:46:36;;;;;;;48.67;26.15;;;30.50;99.90;;;;;;5092366;28;20016;-67
2023/07/31 12:49:03;;;;;;;40.25;23.08;;;30.40;99.90;;;;;;5088440;28;20023;-67
2023/07/31 12:51:29;;;;;;;42.88;21.73;;;30.40;99.90;;;;;;5089456;28;20031;-67
2023/07/31 12:53:56;;;;;;;37.42;19.08;;;30.40;99.90;;;;;;5092691;28;20024;-68
2023/07/31 12:56:22;;;;;;;31.48;20.83;;;30.30;99.90;;;;;;5089957;28;20024;-66
2023/07/31 12:58:49;;;;;;;41.65;21.38;;;30.20;99.90;;;;;;5088975;28;20027;-66
2023/07/31 13:01:16;;;;;;;41.00;21.77;;;30.20;99.90;;;;;;5081884;28;20102;-68
2023/07/31 13:03:42;;;;;;;32.90;20.13;;;30.20;99.90;;;;;;5081938;28;20033;-68
2023/07/31 13:06:09;;;;;;;32.83;19.48;;;30.20;99.90;;;;;;5075571;28;20012;-67
2023/07/31 13:08:35;;;;;;;33.45;20.58;;;30.10;99.90;;;;;;5080766;28;20096;-69
2023/07/31 13:11:02;;;;;;;36.30;21.02;;;30.20;99.90;;;;;;5074772;28;20020;-67
2023/07/31 13:13:30;;;;;;;30.70;21.20;;;30.10;99.90;;;;;;5081310;28;20485;-67
2023/07/31 13:15:56;;;;;;;33.55;21.90;;;30.00;99.90;;;;;;5075186;28;20073;-69
2023/07/31 13:18:23;;;;;;;32.90;21.85;;;30.00;99.90;;;;;;5086422;28;20472;-69
2023/07/31 13:20:49;;;;;;;30.30;20.42;;;30.00;99.90;;;;;;5091323;28;20053;-68
2023/07/31 13:23:16;;;;;;;33.22;22.00;;;29.90;99.90;;;;;;5088915;28;20020;-69
2023/07/31 13:25:43;;;;;;;34.47;20.77;;;29.90;99.90;;;;;;5090885;28;20031;-70